Time;durP1;ratioP1;P1;durP2;ratioP2;P2;SDS_P1;SDS_P2;PMS_P1;PMS_P2;Temp;Humidity;BMP_temperature;BMP_pressure;BME280_temperature;BME280_humidity;BME280_pressure;Samples;Min_cycle;Max_cycle;Signal;HPM_P1;HPM_P2
2022/09/01 00:00:37;;;;;;;1.38;0.90;;;20.50;60.50;;;;;;5050515;28;20049;-70
2022/09/01 00:03:04;;;;;;;1.42;0.80;;;20.50;60.50;;;;;;5050662;28;20059;-70
2022/09/01 00:05:32;;;;;;;1.35;0.90;;;20.50;60.50;;;;;;5050469;28;20053;-70
2022/09/01 00:07:59;;;;;;;1.38;1.02;;;20.50;60.50;;;;;;5050591;28;20134;-70
2022/09/01 00:10:26;;;;;;;1.33;0.90;;;20.50;60.50;;;;;;5050446;28;20053;-72
2022/09/01 00:12:53;;;;;;;0.98;0.80;;;20.50;60.50;;;;;;5055690;28;20549;-70
2022/09/01 00:15:19;;;;;;;1.20;0.90;;;20.50;60.50;;;;;;5050377;28;20464;-71
2022/09/01 00:17:46;;;;;;;1.58;0.93;;;20.50;60.50;;;;;;5050504;28;20057;-72
2022/09/01 00:20:13;;;;;;;0.82;0.80;;;20.50;60.50;;;;;;5050362;28;22015;-72
2022/09/01 00:22:41;;;;;;;1.33;1.02;;;20.50;60.50;;;;;;5050350;28;20053;-71
2022/09/01 00:25:08;;;;;;;1.10;0.95;;;20.50;60.50;;;;;;5050462;28;20056;-71
2022/09/01 00:27:35;;;;;;;1.10;0.95;;;20.50;60.50;;;;;;5066574;28;20617;-72
2022/09/01 00:30:02;;;;;;;1.23;0.90;;;20.60;60.60;;;;;;5055499;28;20490;-70
2022/09/01 00:32:28;;;;;;;0.98;0.90;;;20.50;60.50;;;;;;5050356;28;20049;-71
2022/09/01 00:34:58;;;;;;;1.20;0.90;;;20.40;60.50;;;;;;5050132;28;20056;-74
2022/09/01 00:37:25;;;;;;;1.67;1.05;;;20.20;62.70;;;;;;5033851;28;20550;-71
2022/09/01 00:39:53;;;;;;;0.85;0.80;;;20.40;60.50;;;;;;5051535;28;20049;-72
2022/09/01 00:42:20;;;;;;;2.40;0.75;;;20.40;60.50;;;;;;5053009;28;20429;-72
2022/09/01 00:44:46;;;;;;;1.25;0.80;;;20.40;60.50;;;;;;5071328;28;20048;-71
2022/09/01 00:47:13;;;;;;;0.93;0.85;;;20.40;60.50;;;;;;5071337;28;20048;-72
2022/09/01 00:49:41;;;;;;;1.33;0.90;;;20.40;60.50;;;;;;5071603;28;20056;-71
2022/09/01 00:52:09;;;;;;;2.40;0.90;;;20.40;60.50;;;;;;5070230;28;20478;-71
2022/09/01 00:54:38;;;;;;;1.38;0.93;;;20.40;60.50;;;;;;5070172;28;20535;-72
2022/09/01 00:57:07;;;;;;;0.80;0.80;;;20.40;60.50;;;;;;5069460;28;20416;-71
2022/09/01 00:59:34;;;;;;;1.10;1.00;;;20.40;60.50;;;;;;5052733;28;20053;-71
2022/09/01 01:02:01;;;;;;;0.98;0.88;;;20.40;60.50;;;;;;5053671;28;20055;-71
2022/09/01 01:04:29;;;;;;;1.60;1.00;;;20.40;60.50;;;;;;5054210;28;20079;-71
2022/09/01 01:07:01;;;;;;;1.10;0.95;;;20.40;60.50;;;;;;5054039;28;20105;-71
2022/09/01 01:09:28;;;;;;;3.88;0.80;;;20.40;60.50;;;;;;5055048;28;20077;-71
2022/09/01 01:11:58;;;;;;;1.90;0.80;;;21.90;61.20;;;;;;5056819;28;20474;-71
2022/09/01 01:14:27;;;;;;;0.80;0.80;;;20.40;60.50;;;;;;5074883;28;20048;-71
2022/09/01 01:16:54;;;;;;;0.85;0.82;;;20.40;60.50;;;;;;5074990;28;20052;-74
2022/09/01 01:24:52;;;;;;;1.17;0.98;;;20.30;60.40;;;;;;5073432;28;20625;-71
2022/09/01 01:27:20;;;;;;;1.10;0.75;;;20.30;60.40;;;;;;5065929;28;20055;-71
2022/09/01 01:29:47;;;;;;;3.55;0.95;;;20.30;60.40;;;;;;5061974;28;20045;-72
2022/09/01 01:32:14;;;;;;;1.00;0.90;;;20.30;60.40;;;;;;5036831;28;20126;-71
2022/09/01 01:34:42;;;;;;;0.90;0.80;;;20.20;62.20;;;;;;5054293;28;20135;-71
2022/09/01 01:37:09;;;;;;;1.80;0.98;;;20.70;62.90;;;;;;5053463;28;20082;-71
2022/09/01 01:39:39;;;;;;;0.88;0.85;;;20.30;60.40;;;;;;5053516;28;20057;-71
2022/09/01 01:42:08;;;;;;;1.05;0.85;;;20.30;60.40;;;;;;5060434;28;20051;-71
2022/09/01 01:44:37;;;;;;;1.23;0.80;;;20.30;60.50;;;;;;5054332;28;20076;-74
2022/09/01 01:47:08;;;;;;;0.90;0.80;;;20.20;60.40;;;;;;5053105;28;20056;-72
2022/09/01 01:49:36;;;;;;;0.77;0.77;;;20.30;60.40;;;;;;5053308;28;20053;-71
2022/09/01 01:52:03;;;;;;;1.00;0.90;;;20.20;60.40;;;;;;5058117;28;20049;-71
2022/09/01 01:54:31;;;;;;;1.00;0.90;;;20.30;60.90;;;;;;5054340;28;20494;-72
2022/09/01 01:56:58;;;;;;;0.85;0.82;;;20.20;60.40;;;;;;5053091;28;20053;-74
2022/09/01 01:59:27;;;;;;;1.45;0.93;;;20.20;60.40;;;;;;5053014;28;20387;-70
2022/09/01 02:01:55;;;;;;;1.05;0.80;;;20.20;60.40;;;;;;5053784;28;20059;-73
2022/09/01 02:04:21;;;;;;;1.08;0.90;;;20.20;60.40;;;;;;5053905;28;20068;-72
2022/09/01 02:06:48;;;;;;;0.88;0.80;;;20.20;60.40;;;;;;5067564;28;20402;-71
2022/09/01 02:09:16;;;;;;;1.02;0.90;;;20.20;60.40;;;;;;5073003;28;20501;-74
2022/09/01 02:11:44;;;;;;;1.27;0.90;;;20.20;60.40;;;;;;5072910;28;20059;-70
2022/09/01 02:14:12;;;;;;;1.13;1.00;;;20.20;60.30;;;;;;5072714;28;20056;-71
2022/09/01 02:16:40;;;;;;;1.13;0.90;;;20.20;60.30;;;;;;5073815;28;20052;-71
2022/09/01 02:19:08;;;;;;;1.02;0.80;;;20.20;60.30;;;;;;5072548;28;20048;-71
2022/09/01 02:21:35;;;;;;;1.02;0.90;;;20.20;60.30;;;;;;5058156;28;20049;-74
2022/09/01 02:24:03;;;;;;;1.15;1.00;;;20.20;60.40;;;;;;5052714;28;20056;-74
2022/09/01 02:26:31;;;;;;;0.90;0.80;;;20.20;60.40;;;;;;5052436;28;20056;-74
2022/09/01 02:29:00;;;;;;;1.15;0.90;;;20.10;60.30;;;;;;5052503;28;20450;-71
2022/09/01 02:31:27;;;;;;;1.13;0.90;;;20.10;60.30;;;;;;5053148;28;20053;-71
2022/09/01 02:33:55;;;;;;;1.13;0.82;;;20.10;60.30;;;;;;5053500;28;20044;-71
2022/09/01 02:36:23;;;;;;;1.00;0.90;;;20.10;60.30;;;;;;5071676;28;20138;-69
2022/09/01 02:38:50;;;;;;;2.45;1.23;;;20.10;60.30;;;;;;5072367;28;20055;-70
2022/09/01 02:41:21;;;;;;;1.40;0.70;;;20.10;60.30;;;;;;5072184;28;20048;-73
2022/09/01 02:43:48;;;;;;;1.00;0.90;;;20.10;60.30;;;;;;5072100;28;20048;-71
2022/09/01 02:46:15;;;;;;;1.10;0.90;;;20.10;60.30;;;;;;5072155;28;20056;-71
2022/09/01 02:48:44;;;;;;;0.77;0.77;;;20.10;60.30;;;;;;5072227;28;20056;-71
2022/09/01 02:51:14;;;;;;;0.90;0.90;;;20.10;60.30;;;;;;5066447;28;20045;-71
2022/09/01 02:53:41;;;;;;;1.00;0.90;;;20.10;60.30;;;;;;5072151;28;20071;-71
2022/09/01 02:56:13;;;;;;;1.75;1.10;;;20.10;60.30;;;;;;5072685;28;20055;-71
2022/09/01 02:58:44;;;;;;;0.68;0.68;;;20.10;60.30;;;;;;5072862;28;20040;-71
2022/09/01 03:01:11;;;;;;;0.88;0.80;;;20.00;60.30;;;;;;5070795;28;20048;-71
2022/09/01 03:03:38;;;;;;;1.10;0.90;;;20.10;60.30;;;;;;5056072;28;20052;-74
2022/09/01 03:06:08;;;;;;;1.13;1.02;;;20.00;60.30;;;;;;5051617;28;20136;-74
2022/09/01 03:08:38;;;;;;;1.05;0.90;;;20.00;60.20;;;;;;5051677;28;20139;-74
2022/09/01 03:11:07;;;;;;;0.95;0.85;;;20.00;60.30;;;;;;5051381;28;20060;-69
2022/09/01 03:13:33;;;;;;;1.30;1.20;;;19.90;62.70;;;;;;5051499;28;20060;-69
2022/09/01 03:16:00;;;;;;;0.82;0.80;;;20.00;60.30;;;;;;5058603;28;20135;-71
2022/09/01 03:18:27;;;;;;;2.45;1.10;;;20.00;60.80;;;;;;5071447;28;20055;-70
2022/09/01 03:20:55;;;;;;;0.80;0.80;;;20.00;60.20;;;;;;5070993;28;20131;-69
2022/09/01 03:23:24;;;;;;;1.10;0.90;;;20.00;60.20;;;;;;5070446;28;20048;-69
2022/09/01 03:25:52;;;;;;;0.80;0.80;;;20.00;60.20;;;;;;5071052;28;20091;-72
2022/09/01 03:28:19;;;;;;;0.95;0.90;;;20.00;60.20;;;;;;5071296;28;20139;-73
2022/09/01 03:30:47;;;;;;;0.70;0.70;;;19.90;60.20;;;;;;5064715;28;20056;-71
2022/09/01 03:33:15;;;;;;;1.00;0.90;;;20.00;60.20;;;;;;5051018;28;20053;-71
2022/09/01 03:35:42;;;;;;;0.88;0.82;;;19.90;60.10;;;;;;5051090;28;20053;-73
2022/09/01 03:38:11;;;;;;;1.02;0.93;;;19.90;60.10;;;;;;5051007;28;20059;-70
2022/09/01 03:40:38;;;;;;;0.93;0.80;;;19.90;60.20;;;;;;5051869;28;20081;-70
2022/09/01 03:43:09;;;;;;;1.00;0.90;;;19.90;60.10;;;;;;5050683;28;20057;-70
2022/09/01 03:45:37;;;;;;;1.15;0.80;;;20.10;60.20;;;;;;5057009;28;20489;-71
2022/09/01 03:48:07;;;;;;;0.95;0.80;;;19.90;60.10;;;;;;5068196;28;20131;-71
2022/09/01 03:50:35;;;;;;;0.80;0.80;;;19.90;60.10;;;;;;5070589;28;20060;-71
2022/09/01 03:53:02;;;;;;;0.75;0.75;;;19.90;60.10;;;;;;5071612;28;20064;-71
2022/09/01 03:55:34;;;;;;;1.70;1.27;;;19.90;60.10;;;;;;5070813;28;20131;-71
2022/09/01 03:58:05;;;;;;;1.10;0.80;;;19.90;60.10;;;;;;5071903;28;20143;-72
2022/09/01 04:00:34;;;;;;;1.35;1.00;;;19.90;60.20;;;;;;5070046;28;20080;-71
2022/09/01 04:03:02;;;;;;;0.90;0.80;;;19.90;60.10;;;;;;5069705;28;20131;-71
2022/09/01 04:05:29;;;;;;;1.48;0.95;;;19.90;60.10;;;;;;5058784;28;20049;-71
2022/09/01 04:07:57;;;;;;;1.02;0.93;;;19.90;60.10;;;;;;5056628;28;20565;-71
2022/09/01 04:10:24;;;;;;;1.25;0.90;;;19.90;60.10;;;;;;5071499;28;20048;-72
2022/09/01 04:12:51;;;;;;;1.63;0.85;;;19.90;60.10;;;;;;5070529;28;20500;-71
2022/09/01 04:15:18;;;;;;;1.00;0.90;;;19.80;60.00;;;;;;5070536;28;20052;-69
2022/09/01 04:20:38;;;;;;;1.17;1.00;;;19.90;60.00;;;;;;5070316;28;20060;-71
2022/09/01 04:23:09;;;;;;;;;;;19.80;60.00;;;;;;5070643;28;20049;-69
2022/09/01 04:25:37;;;;;;;1.52;1.10;;;18.10;59.10;;;;;;5070416;28;19921;-72
2022/09/01 04:28:11;;;;;;;2.00;1.10;;;19.80;60.10;;;;;;5070505;28;20057;-70
2022/09/01 04:30:39;;;;;;;0.90;0.80;;;19.80;60.10;;;;;;5070401;28;20090;-69
2022/09/01 04:33:07;;;;;;;1.42;0.73;;;19.80;60.10;;;;;;5070847;28;20052;-70
2022/09/01 04:35:37;;;;;;;0.90;0.80;;;19.80;60.10;;;;;;5072702;28;20087;-74
2022/09/01 04:38:07;;;;;;;1.00;0.90;;;19.80;60.00;;;;;;5074366;28;20135;-74
2022/09/01 04:40:37;;;;;;;1.48;0.85;;;19.80;60.00;;;;;;5075282;28;20538;-71
2022/09/01 04:43:04;;;;;;;1.58;0.98;;;19.80;60.00;;;;;;5074158;28;20423;-71
2022/09/01 04:45:33;;;;;;;1.00;0.90;;;19.70;62.20;;;;;;5075404;28;20167;-71
2022/09/01 04:48:00;;;;;;;0.95;0.88;;;19.80;60.00;;;;;;5066234;28;20179;-71
2022/09/01 04:50:29;;;;;;;1.23;1.00;;;19.70;60.00;;;;;;5055362;28;20056;-72
2022/09/01 04:52:58;;;;;;;0.95;0.80;;;19.70;59.90;;;;;;5055141;28;20056;-69
2022/09/01 04:55:27;;;;;;;1.10;1.00;;;19.70;59.90;;;;;;5053956;28;20048;-73
2022/09/01 04:57:54;;;;;;;1.67;1.00;;;19.80;59.90;;;;;;5054314;28;20159;-69
2022/09/01 05:00:24;;;;;;;0.95;0.90;;;19.80;59.90;;;;;;5053841;28;20060;-73
2022/09/01 05:02:52;;;;;;;0.80;0.80;;;19.80;60.00;;;;;;5054825;28;20048;-71
2022/09/01 05:05:20;;;;;;;1.00;0.90;;;19.70;59.90;;;;;;5057251;28;20056;-70
2022/09/01 05:07:54;;;;;;;0.73;0.73;;;19.80;60.50;;;;;;5053699;28;20102;-72
2022/09/01 05:10:21;;;;;;;0.70;0.70;;;19.70;59.90;;;;;;5053547;28;20405;-71
2022/09/01 05:12:48;;;;;;;1.95;1.00;;;19.70;59.90;;;;;;5054840;28;20052;-73
2022/09/01 05:15:16;;;;;;;0.98;0.82;;;19.60;62.50;;;;;;5053750;28;20064;-74
2022/09/01 05:17:42;;;;;;;1.00;0.90;;;19.70;59.90;;;;;;5053663;28;20466;-74
2022/09/01 05:20:10;;;;;;;1.10;1.00;;;19.70;59.80;;;;;;5058247;28;20087;-71
2022/09/01 05:22:39;;;;;;;0.80;0.80;;;19.70;59.80;;;;;;5053520;28;20552;-74
2022/09/01 05:25:17;;;;;;;1.30;1.20;;;19.70;60.40;;;;;;5054532;28;20102;-71
2022/09/01 05:27:48;;;;;;;1.52;0.90;;;19.70;59.80;;;;;;5053376;28;20081;-72
2022/09/01 05:30:16;;;;;;;0.90;0.80;;;19.70;59.90;;;;;;5054335;28;20045;-71
2022/09/01 05:32:47;;;;;;;0.90;0.85;;;19.70;59.80;;;;;;5054259;28;20056;-71
2022/09/01 05:35:14;;;;;;;2.38;0.93;;;19.70;59.90;;;;;;5049301;28;20132;-71
2022/09/01 05:37:41;;;;;;;1.23;1.00;;;19.70;59.80;;;;;;5054529;28;20455;-71
2022/09/01 05:40:14;;;;;;;1.55;1.08;;;19.70;59.90;;;;;;5052943;28;20061;-71
2022/09/01 05:42:42;;;;;;;1.25;0.80;;;19.70;59.90;;;;;;5053424;28;20048;-70
2022/09/01 05:45:10;;;;;;;1.10;1.00;;;19.70;59.80;;;;;;5053314;28;20049;-70
2022/09/01 05:47:37;;;;;;;1.48;0.80;;;19.70;59.90;;;;;;5052331;28;20140;-69
2022/09/01 05:50:04;;;;;;;1.15;1.00;;;19.60;62.50;;;;;;5056291;28;20053;-69
2022/09/01 05:52:32;;;;;;;2.78;1.08;;;19.70;60.10;;;;;;5053064;28;20131;-69
2022/09/01 05:54:59;;;;;;;1.83;1.00;;;19.80;60.10;;;;;;5053690;28;20048;-71
2022/09/01 05:57:27;;;;;;;1.73;1.27;;;19.70;60.10;;;;;;5050079;28;20469;-71
2022/09/01 05:59:54;;;;;;;0.98;0.80;;;19.80;60.20;;;;;;5052394;28;20469;-71
2022/09/01 06:02:21;;;;;;;1.30;1.02;;;19.70;60.20;;;;;;5052594;28;20057;-70
2022/09/01 06:04:53;;;;;;;1.08;0.90;;;19.70;60.30;;;;;;5047387;28;20064;-71
2022/09/01 06:07:22;;;;;;;1.08;0.80;;;19.70;60.40;;;;;;5052302;28;20049;-71
2022/09/01 06:09:49;;;;;;;3.08;1.00;;;19.80;60.50;;;;;;5050134;28;20049;-71
2022/09/01 06:12:19;;;;;;;1.55;0.95;;;19.80;60.50;;;;;;5052147;28;20041;-71
2022/09/01 06:14:47;;;;;;;1.85;1.10;;;19.80;60.50;;;;;;5052157;28;20413;-71
2022/09/01 06:17:15;;;;;;;1.85;1.10;;;19.70;60.50;;;;;;5052504;28;20052;-71
2022/09/01 06:19:42;;;;;;;1.10;0.82;;;19.70;60.60;;;;;;5052353;28;20302;-71
2022/09/01 06:22:09;;;;;;;2.08;0.88;;;19.80;62.70;;;;;;5053076;28;20413;-71
2022/09/01 06:24:38;;;;;;;0.90;0.80;;;19.80;60.70;;;;;;5052184;28;20052;-71
2022/09/01 06:27:08;;;;;;;1.20;1.00;;;19.80;60.70;;;;;;5052069;28;20579;-69
2022/09/01 06:29:36;;;;;;;1.20;0.90;;;19.80;60.70;;;;;;5051683;28;20055;-69
2022/09/01 06:32:08;;;;;;;2.70;0.90;;;19.80;61.30;;;;;;5056815;28;20098;-70
2022/09/01 06:34:35;;;;;;;1.60;1.10;;;19.80;60.70;;;;;;5052712;28;20049;-70
2022/09/01 06:37:02;;;;;;;1.00;0.90;;;19.80;60.70;;;;;;5053242;28;20064;-70
2022/09/01 06:39:30;;;;;;;1.50;1.00;;;19.80;60.70;;;;;;5052394;28;20107;-71
2022/09/01 06:41:57;;;;;;;1.65;0.80;;;19.80;60.70;;;;;;5051855;28;20521;-72
2022/09/01 06:44:24;;;;;;;2.03;1.10;;;19.70;62.20;;;;;;5052126;28;20061;-72
2022/09/01 06:46:51;;;;;;;2.83;1.08;;;19.80;60.70;;;;;;5051846;28;20057;-71
2022/09/01 06:49:57;;;;;;;2.67;1.00;;;19.80;60.70;;;;;;5071171;28;20062;-71
2022/09/01 06:52:24;;;;;;;;;;;19.80;60.60;;;;;;5073542;28;20049;-71
2022/09/01 06:54:52;;;;;;;3.08;1.10;;;19.80;60.70;;;;;;5071663;28;20011;-71
2022/09/01 06:57:20;;;;;;;4.00;1.27;;;19.70;60.60;;;;;;5071754;28;20054;-71
2022/09/01 06:59:47;;;;;;;5.75;1.30;;;19.90;60.60;;;;;;5071838;28;20052;-71
2022/09/01 07:02:15;;;;;;;1.60;1.05;;;19.90;60.50;;;;;;5067317;28;20460;-74
2022/09/01 07:04:43;;;;;;;2.30;1.23;;;20.00;60.50;;;;;;5071269;28;20060;-73
2022/09/01 07:07:12;;;;;;;3.08;1.13;;;20.20;62.80;;;;;;5071436;28;20049;-73
2022/09/01 07:09:38;;;;;;;3.40;1.05;;;20.10;60.30;;;;;;5072809;28;20444;-73
2022/09/01 07:12:05;;;;;;;3.40;1.20;;;20.10;60.30;;;;;;5068793;28;20073;-71
2022/09/01 07:14:32;;;;;;;1.88;1.13;;;20.20;60.30;;;;;;5063348;28;20427;-71
2022/09/01 07:16:59;;;;;;;4.15;1.20;;;20.20;60.20;;;;;;5053021;28;20049;-74
2022/09/01 07:19:25;;;;;;;2.20;1.30;;;20.20;60.20;;;;;;5051518;28;20060;-73
2022/09/01 07:21:52;;;;;;;1.63;1.27;;;20.20;60.20;;;;;;5063504;28;20078;-74
2022/09/01 07:24:20;;;;;;;3.10;1.30;;;20.20;60.20;;;;;;5031090;28;20049;-72
2022/09/01 07:26:48;;;;;;;1.75;1.10;;;20.20;60.10;;;;;;5038057;28;20417;-72
2022/09/01 07:29:16;;;;;;;2.25;1.30;;;20.20;60.10;;;;;;5051364;28;20673;-70
2022/09/01 07:31:43;;;;;;;1.90;1.23;;;20.20;60.10;;;;;;5051082;28;20057;-74
2022/09/01 07:34:11;;;;;;;2.25;1.10;;;20.80;60.90;;;;;;5051008;28;20053;-73
2022/09/01 07:36:38;;;;;;;1.77;1.13;;;20.20;60.10;;;;;;5052293;28;20099;-72
2022/09/01 07:39:05;;;;;;;3.92;1.20;;;20.10;60.10;;;;;;5052287;28;20049;-71
2022/09/01 07:41:33;;;;;;;4.43;1.23;;;20.30;62.20;;;;;;5051997;28;20045;-71
2022/09/01 07:44:01;;;;;;;1.80;1.20;;;20.10;60.10;;;;;;5051009;28;20078;-73
2022/09/01 07:46:30;;;;;;;1.33;1.05;;;20.10;60.10;;;;;;5051911;28;20432;-73
2022/09/01 07:48:57;;;;;;;3.35;1.35;;;20.10;60.10;;;;;;5051270;28;20057;-73
2022/09/01 07:51:26;;;;;;;1.70;1.10;;;20.10;60.20;;;;;;5051759;28;20045;-72
2022/09/01 07:53:53;;;;;;;2.10;1.20;;;20.10;60.30;;;;;;5052193;28;20052;-74
2022/09/01 07:56:21;;;;;;;3.42;1.27;;;20.10;60.30;;;;;;5050684;28;20570;-73
2022/09/01 07:58:50;;;;;;;2.67;1.23;;;20.10;60.30;;;;;;5052036;28;20048;-73
2022/09/01 08:01:18;;;;;;;1.33;1.08;;;20.10;60.30;;;;;;5050474;28;20413;-72
2022/09/01 08:03:45;;;;;;;1.95;1.08;;;20.10;60.40;;;;;;5066105;28;20051;-73
2022/09/01 08:06:13;;;;;;;1.70;1.10;;;20.10;62.80;;;;;;5050845;28;20057;-73
2022/09/01 08:08:40;;;;;;;2.58;1.10;;;20.10;60.60;;;;;;5050235;28;20059;-72
2022/09/01 08:11:07;;;;;;;1.90;1.00;;;20.10;60.70;;;;;;5050534;28;20409;-72
2022/09/01 08:13:34;;;;;;;2.10;1.00;;;20.00;60.70;;;;;;5051884;28;20059;-75
2022/09/01 08:16:05;;;;;;;6.78;1.20;;;20.00;60.70;;;;;;5051493;28;20486;-73
2022/09/01 08:18:31;;;;;;;2.72;1.00;;;20.00;60.80;;;;;;5051723;28;20139;-73
2022/09/01 08:20:58;;;;;;;2.03;1.20;;;20.00;61.30;;;;;;5050313;28;20464;-73
2022/09/01 08:23:26;;;;;;;1.75;1.08;;;20.00;60.80;;;;;;5062443;28;20053;-73
2022/09/01 08:25:53;;;;;;;1.70;1.00;;;20.10;60.80;;;;;;5050657;28;20111;-73
2022/09/01 08:28:19;;;;;;;2.05;1.30;;;18.90;62.40;;;;;;5051651;28;20449;-73
2022/09/01 08:30:47;;;;;;;2.53;1.27;;;20.10;60.80;;;;;;5049752;28;20509;-73
2022/09/01 08:33:15;;;;;;;2.15;1.10;;;20.10;60.70;;;;;;5051381;28;20053;-71
2022/09/01 08:35:43;;;;;;;2.00;1.00;;;20.10;60.70;;;;;;5051166;28;20405;-71
2022/09/01 08:38:09;;;;;;;4.63;1.00;;;20.10;60.70;;;;;;5049986;28;20131;-72
2022/09/01 08:40:36;;;;;;;1.83;1.10;;;20.20;60.70;;;;;;5049345;28;20053;-71
2022/09/01 08:43:09;;;;;;;2.20;1.10;;;20.10;62.80;;;;;;5050956;28;20057;-71
2022/09/01 08:45:37;;;;;;;3.08;1.23;;;20.10;60.60;;;;;;5045703;28;20073;-73
2022/09/01 08:48:08;;;;;;;1.27;0.98;;;20.10;60.50;;;;;;5050485;28;20053;-75
2022/09/01 08:50:37;;;;;;;2.78;1.00;;;20.70;63.10;;;;;;5049693;28;20067;-74
2022/09/01 08:53:06;;;;;;;1.85;1.13;;;20.10;60.50;;;;;;5049803;28;20059;-73
2022/09/01 08:55:37;;;;;;;2.15;0.95;;;20.10;60.50;;;;;;5049910;28;20049;-73
2022/09/01 08:58:04;;;;;;;2.25;1.20;;;20.20;60.50;;;;;;5049893;28;20049;-71
2022/09/01 09:00:38;;;;;;;2.80;1.20;;;20.10;60.40;;;;;;5051097;28;20045;-71
2022/09/01 09:03:10;;;;;;;1.90;1.05;;;20.10;60.40;;;;;;5050803;28;20045;-73
2022/09/01 09:05:43;;;;;;;4.38;1.13;;;20.20;60.40;;;;;;5050165;28;20556;-73
2022/09/01 09:08:31;;;;;;;1.42;1.00;;;20.10;60.30;;;;;;5052256;28;20041;-73
2022/09/01 09:10:59;;;;;;;3.28;1.10;;;20.10;60.30;;;;;;5046907;28;20128;-72
2022/09/01 09:13:32;;;;;;;1.15;0.80;;;20.10;60.30;;;;;;5050204;28;20044;-72
2022/09/01 09:15:59;;;;;;;5.40;1.30;;;20.10;60.30;;;;;;5068679;28;20122;-71
2022/09/01 09:18:35;;;;;;;2.88;0.93;;;20.20;60.30;;;;;;5069841;28;20327;-71
2022/09/01 09:21:07;;;;;;;1.17;0.90;;;20.20;60.30;;;;;;5070879;28;20063;-71
2022/09/01 09:23:36;;;;;;;1.27;1.08;;;20.20;60.30;;;;;;5072377;28;20131;-72
2022/09/01 09:26:02;;;;;;;2.92;1.00;;;20.10;63.30;;;;;;5053106;28;20096;-74
2022/09/01 09:28:29;;;;;;;1.73;0.80;;;20.20;60.20;;;;;;5053781;28;20053;-74
2022/09/01 09:31:30;;;;;;;2.55;1.17;;;20.20;60.20;;;;;;5033071;28;20481;-74
2022/09/01 09:33:57;;;;;;;1.45;1.00;;;20.30;60.20;;;;;;5033755;28;20049;-74
2022/09/01 09:36:30;;;;;;;3.60;1.02;;;20.20;60.20;;;;;;5034482;28;20065;-74
2022/09/01 09:39:05;;;;;;;1.20;0.93;;;20.30;60.10;;;;;;5033441;28;20057;-73
2022/09/01 09:41:32;;;;;;;1.42;0.90;;;20.30;60.10;;;;;;5033198;28;20061;-73
2022/09/01 09:43:59;;;;;;;1.20;0.98;;;20.40;62.60;;;;;;5056449;28;20055;-73
2022/09/01 09:46:33;;;;;;;1.55;1.00;;;20.40;60.10;;;;;;5073306;28;20060;-73
2022/09/01 09:49:18;;;;;;;2.72;0.93;;;20.40;60.00;;;;;;5072699;28;20091;-74
2022/09/01 09:51:48;;;;;;;5.60;1.20;;;20.40;60.00;;;;;;5063043;28;20066;-72
2022/09/01 09:54:18;;;;;;;1.45;1.00;;;20.40;59.90;;;;;;5052434;28;20056;-72
2022/09/01 09:56:45;;;;;;;2.15;1.25;;;20.40;59.90;;;;;;5052416;28;20715;-71
2022/09/01 09:59:26;;;;;;;2.22;1.10;;;20.50;59.90;;;;;;5060418;28;20052;-71
2022/09/01 10:01:57;;;;;;;1.05;0.90;;;20.50;59.90;;;;;;5051884;28;20057;-71
2022/09/01 10:04:35;;;;;;;1.10;1.00;;;20.50;59.90;;;;;;5052567;28;20059;-71
2022/09/01 10:07:22;;;;;;;2.25;1.08;;;20.60;59.80;;;;;;5053953;28;20421;-71
2022/09/01 10:09:49;;;;;;;1.08;0.95;;;20.60;59.80;;;;;;5052641;28;20056;-71
2022/09/01 10:12:16;;;;;;;1.10;0.95;;;20.70;59.70;;;;;;5057530;28;20048;-71
2022/09/01 10:14:47;;;;;;;3.47;1.00;;;20.70;59.70;;;;;;5064172;28;20463;-71
2022/09/01 10:17:15;;;;;;;2.05;0.98;;;20.70;59.60;;;;;;5052412;28;20065;-71
2022/09/01 10:19:48;;;;;;;1.42;0.88;;;20.80;59.60;;;;;;5053747;28;20132;-72
2022/09/01 10:22:16;;;;;;;1.63;0.90;;;20.80;59.50;;;;;;5052234;28;20064;-71
2022/09/01 10:24:43;;;;;;;1.45;0.90;;;20.80;59.40;;;;;;5051899;28;20049;-71
2022/09/01 10:27:12;;;;;;;1.48;1.00;;;20.80;59.70;;;;;;5051407;28;20056;-71
2022/09/01 10:29:41;;;;;;;1.98;1.20;;;20.90;59.40;;;;;;5050490;28;20052;-71
2022/09/01 10:32:09;;;;;;;1.55;0.80;;;20.90;59.30;;;;;;5071922;28;20079;-71
2022/09/01 10:34:37;;;;;;;1.55;1.13;;;20.90;59.20;;;;;;5072248;28;20101;-71
2022/09/01 10:37:04;;;;;;;1.00;0.90;;;21.00;59.20;;;;;;5072007;28;20060;-71
2022/09/01 10:39:32;;;;;;;1.35;1.10;;;21.00;59.20;;;;;;5073365;28;20057;-73
2022/09/01 10:42:06;;;;;;;2.53;0.90;;;21.00;59.10;;;;;;5072249;28;20063;-72
2022/09/01 10:44:33;;;;;;;2.40;1.40;;;21.10;59.00;;;;;;5055493;28;20352;-73
2022/09/01 10:47:01;;;;;;;0.93;0.82;;;21.10;59.00;;;;;;5072030;28;20063;-73
2022/09/01 10:50:04;;;;;;;1.13;0.80;;;21.60;61.70;;;;;;5072105;28;20059;-73
2022/09/01 10:52:59;;;;;;;1.98;0.93;;;21.10;58.90;;;;;;5072106;28;20087;-73
2022/09/01 10:55:29;;;;;;;;;;;21.20;58.90;;;;;;5063715;28;20566;-73
2022/09/01 10:58:00;;;;;;;2.90;0.90;;;21.20;59.10;;;;;;5058447;28;19931;-73
2022/09/01 11:01:00;;;;;;;1.70;1.15;;;21.20;58.90;;;;;;5062209;28;20049;-74
2022/09/01 11:04:00;;;;;;;0.98;0.85;;;21.30;58.80;;;;;;5051161;28;20437;-73
2022/09/01 11:07:00;;;;;;;1.33;0.80;;;21.30;58.70;;;;;;5038974;28;20055;-71
2022/09/01 11:09:32;;;;;;;1.02;0.90;;;21.30;58.70;;;;;;5051855;28;20056;-73
2022/09/01 11:12:24;;;;;;;1.42;1.10;;;21.30;58.60;;;;;;5051148;28;20123;-73
2022/09/01 11:14:51;;;;;;;0.82;0.77;;;21.40;58.60;;;;;;5050729;28;20052;-74
2022/09/01 11:17:22;;;;;;;1.33;0.90;;;21.30;58.60;;;;;;5052436;28;20413;-73
2022/09/01 11:19:56;;;;;;;1.10;1.00;;;21.40;58.60;;;;;;5051436;28;20067;-73
2022/09/01 11:22:25;;;;;;;1.70;1.00;;;21.30;58.50;;;;;;5051305;28;20055;-73
2022/09/01 11:25:06;;;;;;;3.00;1.13;;;21.40;58.50;;;;;;5050853;28;20525;-73
2022/09/01 11:27:59;;;;;;;1.63;0.90;;;21.40;58.50;;;;;;5051214;28;20057;-73
2022/09/01 11:30:34;;;;;;;3.42;1.00;;;21.40;58.60;;;;;;5040183;28;20063;-72
2022/09/01 11:33:05;;;;;;;1.20;0.93;;;21.40;58.60;;;;;;5051149;28;20059;-73
2022/09/01 11:35:32;;;;;;;2.00;0.95;;;21.50;58.80;;;;;;5052386;28;20048;-71
2022/09/01 11:38:04;;;;;;;2.97;1.17;;;21.40;58.80;;;;;;5051375;28;20254;-71
2022/09/01 11:40:32;;;;;;;2.88;0.98;;;21.40;58.80;;;;;;5050753;28;20128;-71
2022/09/01 11:43:03;;;;;;;4.88;1.13;;;21.40;58.80;;;;;;5052158;28;20421;-72
2022/09/01 11:45:31;;;;;;;1.33;0.90;;;21.40;58.80;;;;;;5049873;28;20556;-73
2022/09/01 11:48:00;;;;;;;1.83;1.08;;;21.40;58.80;;;;;;5052119;28;20048;-74
2022/09/01 11:50:28;;;;;;;2.03;1.27;;;21.40;58.80;;;;;;5050838;28;20661;-73
2022/09/01 11:52:56;;;;;;;1.48;0.80;;;21.40;58.80;;;;;;5051069;28;20144;-73
2022/09/01 11:55:29;;;;;;;1.08;0.82;;;21.40;58.90;;;;;;5050746;28;20478;-73
2022/09/01 11:57:56;;;;;;;1.50;1.00;;;21.40;58.80;;;;;;5052056;28;20139;-74
2022/09/01 12:00:27;;;;;;;1.80;0.98;;;21.60;59.00;;;;;;5050733;28;20489;-73
2022/09/01 12:02:55;;;;;;;1.23;0.90;;;21.40;58.80;;;;;;5050731;28;20136;-73
2022/09/01 12:05:28;;;;;;;1.27;0.93;;;21.40;58.80;;;;;;5050582;28;20052;-73
2022/09/01 12:07:55;;;;;;;1.50;1.00;;;21.40;58.80;;;;;;5050368;28;20057;-74
2022/09/01 12:10:25;;;;;;;3.13;1.02;;;21.40;58.90;;;;;;5051592;28;20048;-73
2022/09/01 12:12:59;;;;;;;2.15;1.10;;;21.50;58.90;;;;;;5050307;28;20420;-72
2022/09/01 12:15:27;;;;;;;1.42;1.00;;;21.50;58.80;;;;;;5050768;28;20048;-71
2022/09/01 12:18:08;;;;;;;1.30;0.90;;;21.50;58.80;;;;;;5050628;28;20517;-71
2022/09/01 12:20:37;;;;;;;2.05;1.10;;;21.50;58.80;;;;;;5050394;28;20053;-70
2022/09/01 12:23:09;;;;;;;1.65;0.90;;;21.50;58.70;;;;;;5050349;28;20163;-72
2022/09/01 12:25:36;;;;;;;1.02;0.90;;;21.50;58.70;;;;;;5050180;28;20071;-70
2022/09/01 12:28:04;;;;;;;2.20;0.90;;;21.50;58.70;;;;;;5065205;28;20128;-74
2022/09/01 12:30:34;;;;;;;2.08;1.00;;;21.50;58.60;;;;;;5050093;28;20490;-74
2022/09/01 12:33:01;;;;;;;0.95;0.80;;;21.50;58.60;;;;;;5049470;28;20067;-74
2022/09/01 12:35:28;;;;;;;1.88;0.90;;;21.60;58.60;;;;;;5049894;28;20133;-74
2022/09/01 12:38:25;;;;;;;1.33;0.90;;;21.50;58.60;;;;;;5049913;28;20057;-73
2022/09/01 12:40:52;;;;;;;1.42;0.88;;;21.50;58.50;;;;;;5047758;28;20052;-74
2022/09/01 12:43:33;;;;;;;0.82;0.70;;;21.60;58.60;;;;;;5050047;28;20137;-74
2022/09/01 12:46:03;;;;;;;1.00;0.90;;;21.60;58.60;;;;;;5050127;28;20080;-74
2022/09/01 12:48:30;;;;;;;1.00;0.85;;;21.60;58.50;;;;;;5047730;28;20056;-74
2022/09/01 12:50:57;;;;;;;1.73;0.80;;;21.60;58.50;;;;;;5049542;28;20055;-71
2022/09/01 12:53:27;;;;;;;0.80;0.80;;;21.80;61.50;;;;;;5050046;28;20071;-71
2022/09/01 12:56:05;;;;;;;1.13;0.98;;;21.60;58.50;;;;;;5050907;28;20102;-74
2022/09/01 12:58:32;;;;;;;1.15;0.95;;;21.60;58.50;;;;;;5043602;28;20055;-74
2022/09/01 13:01:04;;;;;;;1.15;0.82;;;21.50;58.40;;;;;;5054809;28;20067;-74
2022/09/01 13:03:31;;;;;;;2.60;0.90;;;21.60;58.50;;;;;;5053963;28;20094;-74
2022/09/01 13:06:00;;;;;;;0.93;0.77;;;21.60;58.50;;;;;;5053877;28;20053;-74
2022/09/01 13:08:28;;;;;;;1.23;0.88;;;21.60;58.50;;;;;;5054262;28;20405;-74